Time;durP1;ratioP1;P1;durP2;ratioP2;P2;SDS_P1;SDS_P2;PMS_P1;PMS_P2;Temp;Humidity;BMP_temperature;BMP_pressure;BME280_temperature;BME280_humidity;BME280_pressure;Samples;Min_cycle;Max_cycle;Signal;HPM_P1;HPM_P2
2021/01/31 00:02:33;;;;;;;29.00;14.23;;;;;;;0.67;100.00;98703.47;20957820;28;20079;-72
2021/01/31 00:12:34;;;;;;;28.23;14.05;;;;;;;0.63;100.00;98701.94;20966460;28;20052;-74
2021/01/31 00:22:35;;;;;;;28.00;13.75;;;;;;;0.67;100.00;98694.91;20973959;28;20110;-73
2021/01/31 00:32:36;;;;;;;26.85;14.80;;;;;;;0.66;100.00;98691.50;20934740;28;20056;-73
2021/01/31 00:42:38;;;;;;;31.77;15.15;;;;;;;0.67;100.00;98706.03;20967757;28;20056;-73
2021/01/31 00:52:38;;;;;;;28.23;13.68;;;;;;;0.69;100.00;98717.13;20939196;28;20111;-73
2021/01/31 01:02:39;;;;;;;23.10;11.93;;;;;;;0.77;100.00;98735.66;20935640;28;20052;-73
2021/01/31 01:12:40;;;;;;;23.23;12.18;;;;;;;0.73;100.00;98736.69;20949145;28;20064;-73
2021/01/31 01:22:41;;;;;;;23.77;11.07;;;;;;;0.67;100.00;98752.38;20971699;28;20098;-73
2021/01/31 01:32:42;;;;;;;18.90;10.00;;;;;;;0.79;100.00;98757.03;20946216;28;20534;-74
2021/01/31 01:42:43;;;;;;;20.45;10.65;;;;;;;0.80;100.00;98763.88;20936691;28;20094;-73
2021/01/31 01:52:44;;;;;;;20.55;10.82;;;;;;;0.78;100.00;98765.66;20943880;28;20044;-73
2021/01/31 02:02:57;;;;;;;18.83;9.95;;;;;;;0.83;100.00;98760.31;20931261;28;20416;-73
2021/01/31 02:13:01;;;;;;;19.63;10.00;;;;;;;0.77;100.00;98750.28;20953982;28;20582;-73
2021/01/31 02:23:23;;;;;;;20.17;10.23;;;;;;;0.73;100.00;98741.84;20933440;28;20041;-73
2021/01/31 02:34:12;;;;;;;21.80;10.40;;;;;;;0.72;100.00;98753.03;20949637;28;20045;-73
2021/01/31 02:44:18;;;;;;;19.63;10.50;;;;;;;0.73;100.00;98759.03;20827565;28;20040;-72
2021/01/31 02:54:29;;;;;;;21.13;11.10;;;;;;;0.73;100.00;98754.72;20942179;28;20045;-73
2021/01/31 03:04:40;;;;;;;19.05;10.82;;;;;;;0.73;100.00;98767.59;20930281;28;20057;-72
2021/01/31 03:14:51;;;;;;;22.58;11.80;;;;;;;0.70;100.00;98780.59;20924513;28;20090;-73
2021/01/31 03:24:56;;;;;;;19.90;11.13;;;;;;;0.75;100.00;98783.81;20923296;28;20040;-74
2021/01/31 03:35:03;;;;;;;20.55;10.85;;;;;;;0.75;100.00;98799.28;20928753;28;20110;-74
2021/01/31 03:45:07;;;;;;;19.45;9.98;;;;;;;0.86;100.00;98786.78;20927391;28;20095;-73
2021/01/31 03:55:09;;;;;;;18.85;11.18;;;;;;;0.89;100.00;98795.28;20935886;28;20045;-73
2021/01/31 04:05:12;;;;;;;17.55;9.57;;;;;;;0.70;100.00;98800.34;20926921;28;20511;-74
2021/01/31 04:15:43;;;;;;;20.33;11.40;;;;;;;0.89;100.00;98796.13;20932422;28;20123;-74
2021/01/31 04:25:44;;;;;;;20.70;11.15;;;;;;;0.88;99.90;98783.31;20947672;28;20037;-73
2021/01/31 04:35:45;;;;;;;22.55;10.88;;;;;;;0.84;99.81;98773.16;20944651;28;20095;-74
2021/01/31 04:45:47;;;;;;;19.65;10.65;;;;;;;0.77;100.00;98781.16;20947840;28;20441;-73
2021/01/31 04:56:17;;;;;;;18.65;10.95;;;;;;;0.81;100.00;98793.84;20925940;28;20036;-73
2021/01/31 05:06:20;;;;;;;19.20;11.10;;;;;;;0.74;100.00;98801.91;20931667;28;20083;-73
2021/01/31 05:16:22;;;;;;;22.40;11.25;;;;;;;0.69;100.00;98814.13;20942873;28;20037;-73
2021/01/31 05:26:24;;;;;;;20.48;11.38;;;;;;;0.79;100.00;98807.72;20951887;28;20044;-72
2021/01/31 05:36:32;;;;;;;18.77;10.80;;;;;;;0.83;100.00;98804.94;20941991;28;20049;-73
2021/01/31 05:46:44;;;;;;;19.98;11.23;;;;;;;0.74;100.00;98823.34;20940851;28;20110;-73
2021/01/31 05:56:45;;;;;;;21.40;12.68;;;;;;;0.82;99.09;98831.59;20953152;28;20457;-73
2021/01/31 06:06:47;;;;;;;17.92;10.20;;;;;;;0.83;99.44;98833.28;20950547;28;20041;-73
2021/01/31 06:16:58;;;;;;;24.17;12.80;;;;;;;0.81;99.01;98826.53;20949918;28;20048;-72
2021/01/31 06:27:00;;;;;;;21.00;11.18;;;;;;;0.86;99.05;98852.94;20941736;28;20048;-73
2021/01/31 06:37:15;;;;;;;20.58;11.77;;;;;;;0.83;98.80;98851.28;20948320;28;20101;-73
2021/01/31 06:47:30;;;;;;;21.15;11.77;;;;;;;0.79;99.15;98875.50;20941042;28;20049;-72
2021/01/31 06:58:00;;;;;;;21.33;11.90;;;;;;;0.82;98.95;98893.38;20932979;28;20554;-73
2021/01/31 07:08:22;;;;;;;24.25;11.77;;;;;;;0.74;98.91;98895.44;20925921;28;20032;-73
2021/01/31 07:18:28;;;;;;;21.55;11.98;;;;;;;0.75;98.60;98906.59;20940718;28;20045;-73
2021/01/31 07:28:34;;;;;;;23.98;12.65;;;;;;;0.80;98.51;98908.09;20931935;28;20823;-73
2021/01/31 07:38:41;;;;;;;19.77;10.82;;;;;;;0.76;98.86;98903.13;20931246;28;20436;-73
2021/01/31 07:48:45;;;;;;;23.17;12.38;;;;;;;0.83;98.10;98902.81;20944091;28;20041;-74
2021/01/31 07:58:46;;;;;;;21.87;11.80;;;;;;;0.91;98.03;98911.97;20938460;28;20495;-73
2021/01/31 08:08:53;;;;;;;21.35;11.55;;;;;;;1.08;96.33;98915.56;20938282;28;20054;-73
2021/01/31 08:19:09;;;;;;;21.45;11.55;;;;;;;1.01;96.70;98928.75;20966067;28;20484;-72
2021/01/31 08:29:19;;;;;;;22.33;12.48;;;;;;;1.12;97.10;98936.88;20958105;28;20139;-72
2021/01/31 08:39:29;;;;;;;20.60;12.35;;;;;;;1.01;97.04;98954.50;20949059;28;20538;-72
2021/01/31 08:49:30;;;;;;;20.70;12.68;;;;;;;1.08;96.30;98954.19;20957877;28;20053;-73
2021/01/31 08:59:39;;;;;;;18.27;11.63;;;;;;;1.13;96.90;98948.84;20935315;28;20094;-71
2021/01/31 09:09:50;;;;;;;23.42;11.80;;;;;;;1.24;95.38;98954.44;20948432;28;20501;-73
2021/01/31 09:20:09;;;;;;;23.63;12.98;;;;;;;1.40;95.20;98949.50;20953988;28;20443;-73
2021/01/31 09:30:14;;;;;;;23.92;12.88;;;;;;;1.44;94.76;98936.44;20925017;28;20483;-74
2021/01/31 09:40:15;;;;;;;21.45;11.82;;;;;;;1.71;93.55;98935.31;20924305;28;20760;-73
2021/01/31 09:50:17;;;;;;;21.50;12.18;;;;;;;1.87;92.72;98938.06;20947527;28;20543;-73
2021/01/31 10:00:28;;;;;;;24.08;12.82;;;;;;;2.07;92.19;98944.97;20944651;28;20610;-74
2021/01/31 10:10:43;;;;;;;19.65;11.18;;;;;;;2.00;92.36;98959.00;20948751;28;20484;-74
2021/01/31 10:20:44;;;;;;;21.40;11.57;;;;;;;2.31;91.86;98936.13;20932519;28;20049;-73
2021/01/31 10:30:50;;;;;;;22.35;11.70;;;;;;;2.30;91.83;98929.28;20947516;28;20055;-73
2021/01/31 10:40:51;;;;;;;24.70;13.45;;;;;;;2.53;93.25;98928.28;20945376;28;20094;-73
2021/01/31 10:50:51;;;;;;;25.15;13.93;;;;;;;2.67;91.73;98928.47;20932238;28;20036;-73
2021/01/31 11:00:52;;;;;;;20.40;11.90;;;;;;;2.56;91.49;98931.56;20928936;28;20047;-71
2021/01/31 11:10:54;;;;;;;23.60;13.20;;;;;;;2.52;91.38;98908.53;20934778;28;20102;-73
2021/01/31 11:20:58;;;;;;;20.88;11.38;;;;;;;2.51;91.16;98910.25;20950949;28;20457;-73
2021/01/31 11:30:59;;;;;;;19.83;11.67;;;;;;;2.65;93.15;98901.03;20925593;28;20089;-74
2021/01/31 11:41:00;;;;;;;24.77;13.27;;;;;;;2.76;90.70;98898.78;20955854;28;20041;-73
2021/01/31 11:51:01;;;;;;;21.42;11.95;;;;;;;2.58;92.53;98885.00;20949447;28;20090;-72
2021/01/31 12:01:03;;;;;;;21.73;12.52;;;;;;;2.72;92.19;98881.78;20957858;28;20036;-72
2021/01/31 12:11:04;;;;;;;24.90;13.75;;;;;;;2.70;92.03;98883.56;20956940;28;20044;-71
2021/01/31 12:21:05;;;;;;;24.55;13.88;;;;;;;2.82;92.30;98872.69;20967523;28;20044;-71
2021/01/31 12:31:06;;;;;;;23.73;13.05;;;;;;;2.82;92.00;98870.94;20954518;28;20240;-71
2021/01/31 12:41:07;;;;;;;21.58;12.30;;;;;;;2.75;92.99;98860.94;20952304;28;20670;-71
2021/01/31 12:51:08;;;;;;;24.35;13.73;;;;;;;2.93;92.94;98854.94;20955054;28;20053;-72
2021/01/31 13:01:09;;;;;;;24.92;13.65;;;;;;;2.97;93.29;98846.09;20952501;28;20053;-71
2021/01/31 13:11:10;;;;;;;24.48;14.23;;;;;;;2.82;97.50;98826.19;20947037;28;20040;-71
2021/01/31 13:21:12;;;;;;;33.13;17.15;;;;;;;2.83;99.11;98799.44;20950106;28;20051;-71
2021/01/31 13:31:13;;;;;;;27.15;16.20;;;;;;;2.74;100.00;98784.38;20947235;28;20073;-72
2021/01/31 13:41:14;;;;;;;31.05;17.20;;;;;;;2.76;100.00;98785.13;20941757;28;20049;-71
2021/01/31 13:51:15;;;;;;;27.77;15.88;;;;;;;2.61;100.00;98770.38;20931867;28;20136;-72
2021/01/31 14:01:16;;;;;;;28.88;16.60;;;;;;;2.54;100.00;98762.06;20938653;28;20036;-72
2021/01/31 14:11:17;;;;;;;36.58;20.40;;;;;;;2.69;100.00;98753.63;20939054;28;20044;-71
2021/01/31 14:21:18;;;;;;;31.10;16.90;;;;;;;2.47;100.00;98755.56;20936257;28;20053;-69
2021/01/31 14:31:19;;;;;;;36.17;17.67;;;;;;;2.40;100.00;98749.84;20932555;28;20051;-70
2021/01/31 14:41:40;;;;;;;33.65;18.30;;;;;;;2.38;100.00;98763.75;20945007;28;20036;-70
2021/01/31 14:51:44;;;;;;;35.80;19.05;;;;;;;2.37;100.00;98750.00;20925859;28;20095;-71
2021/01/31 15:01:48;;;;;;;39.63;20.07;;;;;;;2.44;100.00;98740.19;20928051;28;20091;-70
2021/01/31 15:11:49;;;;;;;38.25;20.25;;;;;;;2.31;100.00;98732.22;20936647;28;20049;-71
2021/01/31 15:21:50;;;;;;;39.13;20.42;;;;;;;2.34;100.00;98724.31;20933719;28;20489;-71
2021/01/31 15:31:51;;;;;;;45.83;22.45;;;;;;;2.36;100.00;98719.91;20944246;28;20090;-72
2021/01/31 15:41:52;;;;;;;42.00;22.67;;;;;;;2.30;100.00;98701.28;20930905;28;20049;-71
2021/01/31 15:51:56;;;;;;;46.15;23.02;;;;;;;2.24;100.00;98689.50;20936353;28;20747;-72
2021/01/31 16:02:09;;;;;;;54.75;26.73;;;;;;;2.25;100.00;98677.44;20928109;28;20047;-71
2021/01/31 16:12:10;;;;;;;51.42;24.20;;;;;;;2.19;100.00;98670.00;20926376;28;20053;-71
2021/01/31 16:22:14;;;;;;;44.72;23.08;;;;;;;2.08;100.00;98673.13;20927040;28;20554;-71
2021/01/31 16:32:17;;;;;;;48.00;23.00;;;;;;;2.11;100.00;98663.47;20935643;28;20049;-72
2021/01/31 16:42:17;;;;;;;45.10;23.00;;;;;;;2.11;100.00;98657.47;20933640;28;20041;-72
2021/01/31 16:52:19;;;;;;;44.83;23.75;;;;;;;2.19;100.00;98649.34;20945406;28;20037;-71
2021/01/31 17:02:19;;;;;;;50.08;27.73;;;;;;;2.24;100.00;98653.38;20938832;28;20044;-71
2021/01/31 17:12:20;;;;;;;63.13;31.10;;;;;;;2.27;100.00;98637.75;20941507;28;20045;-71
2021/01/31 17:22:21;;;;;;;52.65;26.95;;;;;;;2.27;100.00;98616.28;20940700;28;20079;-71
2021/01/31 17:32:22;;;;;;;57.85;30.95;;;;;;;2.22;100.00;98608.75;20929727;28;20083;-71
2021/01/31 17:42:23;;;;;;;55.80;25.95;;;;;;;2.17;100.00;98600.41;20930970;28;20045;-70
2021/01/31 17:52:24;;;;;;;58.50;28.85;;;;;;;2.18;100.00;98593.50;20930621;28;20048;-71
2021/01/31 18:02:25;;;;;;;72.65;35.42;;;;;;;2.09;100.00;98572.38;20929833;28;20065;-71
2021/01/31 18:12:27;;;;;;;63.08;32.78;;;;;;;2.17;100.00;98564.28;20940776;28;20049;-70
2021/01/31 18:22:27;;;;;;;72.10;36.45;;;;;;;2.25;100.00;98533.75;20936389;28;20056;-71
2021/01/31 18:32:28;;;;;;;64.82;30.00;;;;;;;2.29;100.00;98522.34;20932358;28;20689;-70
2021/01/31 18:42:29;;;;;;;85.15;40.67;;;;;;;2.21;100.00;98509.00;20939890;28;20099;-70
2021/01/31 18:52:30;;;;;;;64.07;29.05;;;;;;;2.35;100.00;98490.22;20928901;28;20501;-70
2021/01/31 19:02:31;;;;;;;62.78;31.33;;;;;;;2.38;100.00;98474.59;20941361;28;20060;-73
2021/01/31 19:12:34;;;;;;;93.40;50.88;;;;;;;2.34;100.00;98463.59;20937338;28;20045;-71
2021/01/31 19:22:35;;;;;;;58.88;30.48;;;;;;;2.38;100.00;98448.78;20952924;28;20045;-70
2021/01/31 19:32:36;;;;;;;61.28;29.38;;;;;;;2.41;100.00;98428.81;20912946;28;20059;-70
2021/01/31 19:42:38;;;;;;;67.70;32.33;;;;;;;2.41;100.00;98397.00;20931510;28;20582;-70
2021/01/31 19:52:39;;;;;;;58.85;28.73;;;;;;;2.36;100.00;98389.50;20938413;28;20048;-70
2021/01/31 20:02:40;;;;;;;67.13;34.13;;;;;;;2.33;100.00;98394.84;20970825;28;20396;-72
2021/01/31 20:12:43;;;;;;;52.72;26.85;;;;;;;2.35;100.00;98387.81;20958226;28;20040;-71
2021/01/31 20:22:44;;;;;;;55.28;28.20;;;;;;;2.35;100.00;98356.00;20941866;28;20473;-70
2021/01/31 20:32:45;;;;;;;56.65;28.55;;;;;;;2.34;100.00;98356.91;20924629;28;20044;-71
2021/01/31 20:42:46;;;;;;;52.33;25.95;;;;;;;2.32;100.00;98331.22;20961053;28;20492;-71
2021/01/31 20:52:48;;;;;;;62.33;29.02;;;;;;;2.33;100.00;98312.22;20951544;28;20044;-71
2021/01/31 21:02:49;;;;;;;56.25;27.13;;;;;;;2.28;100.00;98288.41;20948678;28;20041;-71
2021/01/31 21:13:02;;;;;;;53.78;26.30;;;;;;;2.30;100.00;98275.41;20961055;28;20060;-70
2021/01/31 21:23:04;;;;;;;53.97;26.35;;;;;;;2.25;100.00;98255.03;20953210;28;20071;-70
2021/01/31 21:33:07;;;;;;;52.80;26.23;;;;;;;2.32;100.00;98251.19;20933066;28;20048;-71
2021/01/31 21:43:08;;;;;;;60.90;27.80;;;;;;;2.38;100.00;98237.94;20949744;28;20057;-71
2021/01/31 21:53:12;;;;;;;52.95;27.00;;;;;;;2.36;100.00;98216.53;20953804;28;20044;-71
2021/01/31 22:03:14;;;;;;;54.17;26.27;;;;;;;2.41;100.00;98204.22;20898860;28;20400;-71
2021/01/31 22:13:15;;;;;;;51.45;25.77;;;;;;;2.40;100.00;98189.63;20888040;28;20106;-71
2021/01/31 22:23:17;;;;;;;51.05;26.42;;;;;;;2.44;100.00;98190.28;20886976;28;20489;-70
2021/01/31 22:33:18;;;;;;;56.10;27.67;;;;;;;2.46;100.00;98172.97;20903634;28;20106;-71
2021/01/31 22:43:18;;;;;;;53.30;26.38;;;;;;;2.43;100.00;98158.50;20907566;28;20067;-75
2021/01/31 22:53:19;;;;;;;54.22;26.45;;;;;;;2.36;100.00;98152.00;20946296;28;20496;-75
2021/01/31 23:03:21;;;;;;;56.08;26.98;;;;;;;2.45;100.00;98155.81;20902268;28;20077;-75
2021/01/31 23:13:23;;;;;;;54.05;28.73;;;;;;;2.47;100.00;98131.59;20898910;28;20048;-74
2021/01/31 23:23:24;;;;;;;61.13;28.17;;;;;;;2.40;100.00;98122.53;20894357;28;20455;-75
2021/01/31 23:33:25;;;;;;;52.70;27.13;;;;;;;2.41;100.00;98111.28;20893928;28;20061;-75
2021/01/31 23:43:26;;;;;;;57.15;27.50;;;;;;;2.45;100.00;98093.84;20895504;28;20128;-75
2021/01/31 23:53:27;;;;;;;59.40;28.58;;;;;;;2.41;100.00;98084.63;20940085;28;20047;-75
